createdAt,value
2022-12-02T00:00:20.854Z,45.77
2022-12-02T00:01:22.830Z,46.00
2022-12-02T00:02:33.156Z,45.79
2022-12-02T00:03:37.356Z,45.83
2022-12-02T00:04:39.128Z,45.71
2022-12-02T00:05:40.710Z,45.66
2022-12-02T00:06:42.907Z,45.70
2022-12-02T00:07:45.985Z,45.72
2022-12-02T00:08:47.584Z,45.68
2022-12-02T00:09:49.599Z,45.77
2022-12-02T00:10:54.974Z,45.80
2022-12-02T00:11:57.305Z,45.69
2022-12-02T00:13:20.197Z,45.75
2022-12-02T00:14:30.724Z,45.72
2022-12-02T00:15:44.668Z,45.55
2022-12-02T00:16:46.243Z,45.62
2022-12-02T00:17:47.914Z,45.77
2022-12-02T00:18:50.656Z,45.51
2022-12-02T00:19:53.307Z,45.49
2022-12-02T00:20:55.609Z,45.51
2022-12-02T00:21:57.158Z,45.58
2022-12-02T00:22:58.740Z,45.66
2022-12-02T00:24:00.280Z,45.29
2022-12-02T00:25:01.828Z,45.49
2022-12-02T00:26:03.511Z,45.45
2022-12-02T00:27:05.049Z,45.55
2022-12-02T00:28:06.650Z,45.67
2022-12-02T00:29:08.268Z,45.51
2022-12-02T00:30:10.495Z,45.35
2022-12-02T00:31:12.136Z,45.50
2022-12-02T00:32:13.764Z,45.52
2022-12-02T00:33:17.694Z,45.25
2022-12-02T00:34:19.335Z,45.35
2022-12-02T00:35:22.960Z,45.35
2022-12-02T00:36:24.527Z,45.25
2022-12-02T00:37:26.071Z,45.18
2022-12-02T00:38:27.634Z,45.34
2022-12-02T00:39:29.259Z,45.35
2022-12-02T00:40:30.811Z,45.31
2022-12-02T00:41:32.371Z,45.36
2022-12-02T00:42:33.960Z,45.32
2022-12-02T00:43:54.191Z,45.40
2022-12-02T00:45:14.143Z,45.14
2022-12-02T00:46:34.027Z,45.13
2022-12-02T00:47:35.610Z,45.39
2022-12-02T00:48:37.194Z,45.37
2022-12-02T00:49:38.749Z,45.27
2022-12-02T00:50:40.296Z,45.12
2022-12-02T00:51:43.206Z,45.21
2022-12-02T00:52:44.757Z,45.15
2022-12-02T00:53:47.525Z,45.14
2022-12-02T00:54:49.462Z,45.23
2022-12-02T00:55:51.176Z,45.17
2022-12-02T00:56:52.752Z,45.22
2022-12-02T00:57:54.297Z,45.16
2022-12-02T00:58:55.871Z,45.12
2022-12-02T00:59:57.391Z,45.01
2022-12-02T01:00:59.147Z,44.83
2022-12-02T01:02:00.807Z,45.14
2022-12-02T01:03:02.382Z,45.25
2022-12-02T01:04:04.956Z,45.20
2022-12-02T01:05:07.116Z,45.00
2022-12-02T01:06:08.633Z,45.01
2022-12-02T01:07:10.589Z,45.19
2022-12-02T01:08:12.159Z,45.08
2022-12-02T01:09:13.883Z,45.07
2022-12-02T01:10:15.617Z,44.97
2022-12-02T01:11:17.459Z,45.06
2022-12-02T01:12:19.059Z,45.00
2022-12-02T01:13:21.222Z,44.96
2022-12-02T01:14:22.766Z,44.99
2022-12-02T01:15:24.367Z,44.96
2022-12-02T01:16:26.061Z,44.95
2022-12-02T01:17:27.631Z,44.80
2022-12-02T01:18:29.492Z,44.90
2022-12-02T01:19:31.376Z,44.92
2022-12-02T01:20:32.986Z,44.87
2022-12-02T01:21:34.549Z,44.64
2022-12-02T01:22:36.103Z,44.85
2022-12-02T01:23:37.726Z,44.83
2022-12-02T01:24:39.252Z,44.71
2022-12-02T01:25:40.932Z,44.81
2022-12-02T01:26:42.590Z,44.80
2022-12-02T01:27:44.142Z,44.82
2022-12-02T01:28:45.830Z,44.86
2022-12-02T01:29:47.352Z,44.78
2022-12-02T01:30:48.935Z,44.92
2022-12-02T01:31:50.509Z,44.79
2022-12-02T01:32:52.158Z,44.67
2022-12-02T01:33:53.768Z,44.69
2022-12-02T01:34:55.300Z,44.78
2022-12-02T01:35:56.883Z,44.74
2022-12-02T01:36:58.479Z,44.71
2022-12-02T01:38:00.188Z,44.61
2022-12-02T01:39:01.756Z,44.74
2022-12-02T01:40:06.163Z,44.66
2022-12-02T01:41:08.344Z,44.60
2022-12-02T01:42:11.219Z,44.71
2022-12-02T01:43:13.390Z,44.68
2022-12-02T01:44:15.132Z,44.65
2022-12-02T01:45:17.365Z,44.60
2022-12-02T01:46:19.414Z,44.82
2022-12-02T01:47:21.135Z,44.75
2022-12-02T01:48:22.986Z,44.64
2022-12-02T01:49:24.820Z,44.82
2022-12-02T01:50:26.429Z,44.64
2022-12-02T01:51:27.987Z,44.78
2022-12-02T01:52:29.533Z,44.60
2022-12-02T01:53:31.710Z,44.66
2022-12-02T01:54:35.542Z,44.57
2022-12-02T01:55:37.213Z,44.72
2022-12-02T01:56:39.481Z,44.66
2022-12-02T01:57:41.223Z,44.41
2022-12-02T01:58:42.797Z,44.46
2022-12-02T01:59:44.603Z,44.54
2022-12-02T02:00:46.219Z,44.50
2022-12-02T02:01:47.813Z,44.53
2022-12-02T02:02:49.483Z,44.45
2022-12-02T02:03:51.093Z,44.57
2022-12-02T02:04:55.792Z,44.45
2022-12-02T02:05:57.414Z,44.51
2022-12-02T02:06:58.958Z,44.49
2022-12-02T02:08:10.332Z,44.58
2022-12-02T02:09:12.402Z,44.47
2022-12-02T02:10:14.549Z,44.37
2022-12-02T02:11:16.616Z,44.44
2022-12-02T02:12:18.296Z,44.47
2022-12-02T02:13:19.899Z,44.20
2022-12-02T02:14:21.474Z,44.44
2022-12-02T02:15:24.319Z,44.53
2022-12-02T02:16:26.209Z,44.52
2022-12-02T02:17:28.477Z,44.50
2022-12-02T02:18:30.061Z,44.43
2022-12-02T02:19:31.719Z,44.43
2022-12-02T02:20:35.098Z,44.52
2022-12-02T02:21:42.765Z,44.50
2022-12-02T02:22:52.368Z,44.47
2022-12-02T02:23:54.001Z,44.27
2022-12-02T02:24:55.555Z,44.24
2022-12-02T02:25:59.968Z,44.37
2022-12-02T02:27:01.589Z,44.35
2022-12-02T02:28:03.582Z,44.30
2022-12-02T02:29:05.152Z,44.33
2022-12-02T02:30:08.680Z,44.36
2022-12-02T02:31:10.429Z,44.25
2022-12-02T02:32:12.603Z,44.22
2022-12-02T02:33:15.811Z,44.19
2022-12-02T02:34:17.342Z,44.25
2022-12-02T02:35:21.126Z,44.21
2022-12-02T02:36:22.792Z,44.27
2022-12-02T02:37:25.279Z,44.18
2022-12-02T02:38:28.493Z,44.18
2022-12-02T02:39:30.505Z,44.08
2022-12-02T02:40:32.243Z,44.24
2022-12-02T02:41:33.871Z,44.15
2022-12-02T02:42:35.573Z,44.19
2022-12-02T02:43:38.844Z,44.15
2022-12-02T02:44:40.419Z,44.21
2022-12-02T02:45:43.281Z,43.95
2022-12-02T02:46:45.153Z,44.17
2022-12-02T02:47:47.173Z,44.12
2022-12-02T02:48:49.879Z,44.28
2022-12-02T02:49:51.936Z,44.33
2022-12-02T02:50:54.337Z,44.11
2022-12-02T02:51:55.896Z,44.11
2022-12-02T02:52:57.969Z,44.13
2022-12-02T02:53:59.578Z,44.02
2022-12-02T02:55:01.237Z,44.26
2022-12-02T02:56:02.951Z,44.16
2022-12-02T02:57:04.524Z,44.43
2022-12-02T02:58:14.918Z,44.31
2022-12-02T02:59:16.917Z,44.23
2022-12-02T03:00:20.974Z,44.20
2022-12-02T03:01:30.001Z,44.18
2022-12-02T03:02:32.088Z,44.29
2022-12-02T03:03:37.713Z,44.10
2022-12-02T03:04:41.861Z,44.17
2022-12-02T03:05:44.493Z,44.23
2022-12-02T03:06:47.553Z,44.34
2022-12-02T03:07:49.730Z,44.25
2022-12-02T03:08:52.059Z,44.27
2022-12-02T03:09:54.000Z,44.30
2022-12-02T03:10:59.249Z,44.11
2022-12-02T03:12:01.580Z,44.35
2022-12-02T03:13:03.280Z,44.22
2022-12-02T03:14:05.955Z,44.27
2022-12-02T03:15:09.093Z,44.38
2022-12-02T03:16:15.048Z,44.32
2022-12-02T03:17:16.785Z,44.22
2022-12-02T03:18:18.972Z,44.34
2022-12-02T03:19:20.811Z,44.43
2022-12-02T03:20:23.581Z,44.41
2022-12-02T03:21:26.977Z,44.29
2022-12-02T03:22:29.306Z,44.24
2022-12-02T03:23:32.698Z,44.21
2022-12-02T03:24:34.304Z,44.21
2022-12-02T03:25:36.806Z,44.27
2022-12-02T03:26:40.631Z,44.50
2022-12-02T03:27:42.468Z,44.48
2022-12-02T03:28:45.406Z,44.37
2022-12-02T03:29:46.948Z,44.39
2022-12-02T03:30:48.833Z,44.28
2022-12-02T03:31:50.432Z,44.44
2022-12-02T03:32:52.399Z,44.42
2022-12-02T03:33:55.861Z,44.44
2022-12-02T03:34:57.928Z,44.37
2022-12-02T03:35:59.508Z,44.39
2022-12-02T03:37:01.123Z,44.37
2022-12-02T03:38:02.700Z,44.37
2022-12-02T03:39:05.712Z,44.57
2022-12-02T03:40:08.267Z,44.35
2022-12-02T03:41:10.492Z,44.30
2022-12-02T03:42:12.456Z,44.40
2022-12-02T03:43:14.515Z,44.41
2022-12-02T03:44:16.562Z,44.15
2022-12-02T03:45:18.500Z,44.39
2022-12-02T03:46:20.182Z,44.24
2022-12-02T03:47:21.895Z,44.36
2022-12-02T03:48:25.144Z,44.38
2022-12-02T03:49:26.899Z,44.06
2022-12-02T03:50:29.094Z,44.34
2022-12-02T03:51:31.777Z,44.40
2022-12-02T03:52:33.557Z,44.40
2022-12-02T03:53:36.569Z,44.35
2022-12-02T03:54:38.804Z,44.36
2022-12-02T03:55:40.457Z,44.37
2022-12-02T03:56:43.283Z,44.47
2022-12-02T03:57:44.929Z,44.56
2022-12-02T03:58:50.659Z,44.40
2022-12-02T03:59:52.255Z,44.33
2022-12-02T04:00:53.843Z,44.40
2022-12-02T04:01:55.871Z,44.40
2022-12-02T04:02:57.546Z,44.42
2022-12-02T04:03:59.288Z,44.35
2022-12-02T04:05:00.847Z,44.34
2022-12-02T04:06:02.408Z,44.21
2022-12-02T04:07:03.992Z,44.24
2022-12-02T04:08:05.863Z,44.34
2022-12-02T04:09:07.460Z,44.40
2022-12-02T04:10:09.597Z,44.48
2022-12-02T04:11:11.170Z,44.65
2022-12-02T04:12:12.690Z,44.38
2022-12-02T04:13:14.244Z,44.41
2022-12-02T04:14:15.796Z,44.37
2022-12-02T04:15:17.564Z,44.61
2022-12-02T04:16:19.149Z,44.35
2022-12-02T04:17:20.793Z,44.43
2022-12-02T04:18:22.382Z,44.44
2022-12-02T04:19:24.499Z,44.43
2022-12-02T04:20:26.189Z,44.46
2022-12-02T04:21:27.728Z,44.42
2022-12-02T04:22:29.221Z,44.55
2022-12-02T04:23:30.933Z,44.49
2022-12-02T04:24:32.677Z,44.37
2022-12-02T04:25:34.305Z,44.46
2022-12-02T04:26:40.363Z,44.70
2022-12-02T04:27:44.877Z,44.46
2022-12-02T04:28:46.564Z,44.46
2022-12-02T04:29:48.127Z,44.42
2022-12-02T04:30:49.760Z,44.31
2022-12-02T04:31:51.357Z,44.49
2022-12-02T04:32:52.905Z,44.48
2022-12-02T04:33:54.459Z,44.46
2022-12-02T04:34:56.074Z,44.42
2022-12-02T04:35:57.638Z,44.58
2022-12-02T04:36:59.158Z,44.49
2022-12-02T04:38:00.753Z,44.51
2022-12-02T04:39:02.288Z,44.54
2022-12-02T04:40:04.675Z,44.52
2022-12-02T04:41:06.335Z,44.57
2022-12-02T04:42:07.870Z,44.41
2022-12-02T04:43:09.408Z,44.32
2022-12-02T04:44:16.541Z,44.51
2022-12-02T04:45:19.532Z,44.50
2022-12-02T04:46:21.630Z,44.61
2022-12-02T04:47:23.285Z,44.62
2022-12-02T04:48:24.800Z,44.42
2022-12-02T04:49:26.342Z,44.49
2022-12-02T04:50:27.894Z,44.45
2022-12-02T04:51:29.457Z,44.50
2022-12-02T04:52:31.072Z,44.56
2022-12-02T04:53:32.618Z,44.42
2022-12-02T04:54:34.159Z,44.49
2022-12-02T04:55:35.735Z,44.48
2022-12-02T04:56:37.277Z,44.59
2022-12-02T04:57:38.803Z,44.48
2022-12-02T04:58:40.326Z,44.45
2022-12-02T04:59:42.018Z,44.52
2022-12-02T05:00:43.699Z,44.49
2022-12-02T05:01:45.229Z,44.53
2022-12-02T05:02:46.952Z,44.44
2022-12-02T05:03:48.603Z,44.48
2022-12-02T05:04:50.151Z,44.43
2022-12-02T05:05:51.811Z,44.32
2022-12-02T05:06:53.383Z,44.44
2022-12-02T05:07:55.031Z,44.37
2022-12-02T05:08:56.588Z,44.46
2022-12-02T05:09:58.147Z,44.46
2022-12-02T05:10:59.765Z,44.32
2022-12-02T05:12:01.371Z,44.44
2022-12-02T05:13:02.931Z,44.44
2022-12-02T05:14:04.564Z,44.44
2022-12-02T05:15:06.843Z,44.40
2022-12-02T05:16:08.454Z,44.49
2022-12-02T05:17:10.033Z,44.48
2022-12-02T05:18:11.533Z,44.47
2022-12-02T05:19:13.063Z,44.48
2022-12-02T05:20:15.000Z,44.52
2022-12-02T05:21:16.629Z,44.44
2022-12-02T05:22:18.196Z,44.46
2022-12-02T05:23:19.729Z,44.52
2022-12-02T05:24:21.258Z,44.36
2022-12-02T05:25:22.901Z,44.34
2022-12-02T05:26:24.518Z,44.56
2022-12-02T05:27:28.678Z,44.47
2022-12-02T05:28:32.494Z,44.44
2022-12-02T05:29:34.101Z,44.46
2022-12-02T05:30:35.686Z,44.52
2022-12-02T05:31:37.547Z,44.46
2022-12-02T05:32:39.234Z,44.50
2022-12-02T05:33:40.791Z,44.59
2022-12-02T05:34:42.403Z,44.57
2022-12-02T05:35:43.998Z,44.45
2022-12-02T05:36:45.678Z,44.45
2022-12-02T05:37:47.222Z,44.37
2022-12-02T05:38:48.735Z,44.51
2022-12-02T05:39:50.436Z,44.46
2022-12-02T05:40:56.108Z,44.51
2022-12-02T05:42:05.312Z,44.45
2022-12-02T05:43:18.498Z,44.44
2022-12-02T05:44:23.671Z,44.32
2022-12-02T05:45:25.216Z,44.38
2022-12-02T05:46:27.435Z,44.55
2022-12-02T05:47:32.537Z,44.39
2022-12-02T05:48:35.382Z,44.47
2022-12-02T05:49:38.215Z,44.63
2022-12-02T05:50:41.375Z,44.40
2022-12-02T05:51:46.598Z,44.37
2022-12-02T05:52:49.915Z,44.50
2022-12-02T05:53:51.489Z,44.22
2022-12-02T05:54:58.088Z,44.51
2022-12-02T05:56:00.416Z,44.39
2022-12-02T05:57:04.916Z,44.52
2022-12-02T05:58:09.740Z,44.37
2022-12-02T05:59:17.045Z,44.69
2022-12-02T06:00:23.317Z,44.39
2022-12-02T06:01:40.970Z,44.55
2022-12-02T06:02:49.349Z,44.41
2022-12-02T06:03:51.257Z,44.47
2022-12-02T06:04:54.875Z,44.51
2022-12-02T06:05:56.488Z,44.54
2022-12-02T06:07:02.053Z,44.62
2022-12-02T06:08:17.890Z,44.64
2022-12-02T06:09:23.904Z,44.58
2022-12-02T06:10:32.885Z,44.57
2022-12-02T06:11:38.861Z,44.54
2022-12-02T06:12:40.508Z,44.39
2022-12-02T06:13:43.488Z,44.63
2022-12-02T06:14:51.393Z,44.59
2022-12-02T06:15:54.597Z,44.61
2022-12-02T06:17:01.986Z,44.61
2022-12-02T06:18:15.513Z,44.73
2022-12-02T06:19:35.825Z,44.61
2022-12-02T06:20:38.862Z,44.51
2022-12-02T06:21:41.254Z,44.43
2022-12-02T06:22:43.065Z,44.62
2022-12-02T06:23:47.271Z,44.39
2022-12-02T06:24:49.294Z,44.42
2022-12-02T06:25:52.637Z,44.56
2022-12-02T06:26:57.644Z,44.50
2022-12-02T06:28:10.480Z,44.32
2022-12-02T06:29:17.663Z,44.50
2022-12-02T06:30:19.248Z,44.44
2022-12-02T06:31:31.365Z,44.51
2022-12-02T06:32:38.784Z,44.54
2022-12-02T06:33:41.179Z,44.55
2022-12-02T06:34:43.894Z,44.60
2022-12-02T06:35:45.480Z,44.47
2022-12-02T06:36:47.161Z,44.63
2022-12-02T06:37:50.430Z,44.47
2022-12-02T06:38:57.397Z,44.54
2022-12-02T06:41:23.648Z,44.50
2022-12-02T06:42:38.072Z,44.67
2022-12-02T06:43:39.708Z,44.86
2022-12-02T06:44:59.812Z,44.86
2022-12-02T06:46:01.499Z,44.76
2022-12-02T06:47:37.886Z,44.84
2022-12-02T06:48:40.659Z,45.01
2022-12-02T06:49:42.249Z,44.89
2022-12-02T06:50:47.034Z,44.95
2022-12-02T06:52:00.998Z,45.14
2022-12-02T06:53:25.908Z,45.15
2022-12-02T06:54:30.874Z,44.98
2022-12-02T06:55:34.856Z,45.04
2022-12-02T06:56:36.478Z,44.93
2022-12-02T06:57:38.060Z,45.01
2022-12-02T06:58:43.452Z,45.09
2022-12-02T06:59:49.348Z,45.02
2022-12-02T07:00:51.036Z,45.14
2022-12-02T07:02:07.898Z,45.13
2022-12-02T07:03:32.782Z,45.19
2022-12-02T07:04:45.714Z,45.20
2022-12-02T07:05:47.328Z,45.15
2022-12-02T07:06:54.546Z,45.18
2022-12-02T07:07:56.111Z,45.21
2022-12-02T07:09:06.426Z,45.20
2022-12-02T07:10:19.931Z,45.20
2022-12-02T07:11:46.249Z,45.24
2022-12-02T07:12:47.907Z,45.14
2022-12-02T07:13:49.709Z,45.19
2022-12-02T07:14:56.253Z,45.29
2022-12-02T07:15:57.832Z,45.20
2022-12-02T07:17:06.615Z,45.29
2022-12-02T07:18:18.760Z,45.25
2022-12-02T07:19:23.956Z,45.23
2022-12-02T07:20:38.419Z,45.22
2022-12-02T07:21:39.996Z,45.29
2022-12-02T07:22:47.894Z,45.30
2022-12-02T07:23:49.468Z,45.34
2022-12-02T07:25:09.581Z,45.30
2022-12-02T07:26:12.084Z,45.30
2022-12-02T07:27:26.191Z,45.37
2022-12-02T07:28:37.059Z,45.38
2022-12-02T07:29:38.600Z,45.27
2022-12-02T07:30:41.928Z,45.35
2022-12-02T07:31:44.712Z,45.48
2022-12-02T07:32:46.299Z,45.36
2022-12-02T07:33:48.449Z,45.29
2022-12-02T07:34:50.736Z,45.31
2022-12-02T07:35:52.760Z,45.28
2022-12-02T07:36:54.304Z,45.42
2022-12-02T07:37:56.128Z,45.60
2022-12-02T07:39:05.647Z,45.72
2022-12-02T07:40:08.176Z,45.91
2022-12-02T07:41:09.774Z,46.04
2022-12-02T07:42:11.550Z,46.23
2022-12-02T07:43:13.129Z,46.51
2022-12-02T07:44:14.690Z,46.64
2022-12-02T07:45:19.214Z,46.97
2022-12-02T07:46:21.019Z,47.91
2022-12-02T07:47:22.610Z,49.02
2022-12-02T07:48:24.282Z,49.59
2022-12-02T07:49:25.856Z,50.23
2022-12-02T07:50:27.586Z,50.77
2022-12-02T07:51:29.250Z,50.83
2022-12-02T07:52:30.822Z,51.44
2022-12-02T07:53:32.398Z,52.06
2022-12-02T07:54:33.996Z,51.78
2022-12-02T07:55:35.554Z,52.13
2022-12-02T07:56:37.083Z,51.70
2022-12-02T07:57:39.224Z,51.50
2022-12-02T07:59:09.988Z,51.24
2022-12-02T08:00:04.851Z,51.04
2022-12-02T08:01:06.459Z,50.79
2022-12-02T08:02:08.104Z,50.49
2022-12-02T08:03:09.665Z,50.42
2022-12-02T08:04:11.218Z,50.40
2022-12-02T08:05:12.839Z,50.04
2022-12-02T08:06:15.315Z,50.01
2022-12-02T08:07:16.990Z,49.93
2022-12-02T08:08:18.618Z,49.74
2022-12-02T08:09:20.151Z,49.61
2022-12-02T08:10:22.448Z,49.35
2022-12-02T08:11:23.962Z,49.36
2022-12-02T08:12:25.592Z,49.35
2022-12-02T08:13:27.152Z,49.15
2022-12-02T08:14:28.845Z,48.98
2022-12-02T08:15:30.408Z,48.84
2022-12-02T08:16:32.033Z,48.68
2022-12-02T08:17:33.737Z,48.70
2022-12-02T08:18:35.301Z,48.61
2022-12-02T08:19:36.946Z,48.44
2022-12-02T08:20:38.609Z,48.42
2022-12-02T08:21:41.065Z,48.23
2022-12-02T08:22:42.660Z,48.14
2022-12-02T08:23:44.222Z,48.14
2022-12-02T08:24:45.829Z,47.98
2022-12-02T08:25:47.473Z,47.93
2022-12-02T08:26:49.063Z,47.91
2022-12-02T08:27:50.628Z,47.80
2022-12-02T08:28:54.204Z,47.74
2022-12-02T08:29:56.356Z,47.89
2022-12-02T08:30:57.993Z,47.83
2022-12-02T08:31:59.701Z,47.85
2022-12-02T08:33:01.280Z,47.71
2022-12-02T08:34:07.137Z,48.05
2022-12-02T08:35:09.692Z,47.83
2022-12-02T08:36:11.239Z,47.83
2022-12-02T08:37:13.176Z,47.98
2022-12-02T08:38:14.876Z,47.86
2022-12-02T08:39:16.892Z,47.85
2022-12-02T08:40:19.432Z,47.87
2022-12-02T08:41:21.384Z,47.76
2022-12-02T08:42:22.994Z,47.71
2022-12-02T08:43:24.724Z,47.79
2022-12-02T08:44:26.539Z,48.01
2022-12-02T08:45:29.344Z,47.66
2022-12-02T08:46:31.700Z,47.83
2022-12-02T08:47:33.320Z,47.73
2022-12-02T08:48:34.869Z,47.71
2022-12-02T08:49:36.419Z,47.83
2022-12-02T08:50:37.995Z,47.74
2022-12-02T08:51:39.535Z,47.74
2022-12-02T08:52:41.467Z,47.64
2022-12-02T08:53:43.023Z,47.70
2022-12-02T08:54:45.732Z,47.49
2022-12-02T08:55:47.707Z,47.51
2022-12-02T08:56:49.512Z,47.73
2022-12-02T08:57:51.215Z,47.76
2022-12-02T08:58:52.865Z,47.68
2022-12-02T08:59:54.480Z,47.40
2022-12-02T09:00:56.114Z,47.72
2022-12-02T09:01:57.833Z,47.64
2022-12-02T09:02:59.514Z,47.80
2022-12-02T09:04:01.183Z,47.87
2022-12-02T09:05:02.921Z,47.79
2022-12-02T09:06:04.751Z,47.73
2022-12-02T09:07:06.296Z,47.72
2022-12-02T09:08:08.787Z,47.84
2022-12-02T09:09:10.919Z,47.89
2022-12-02T09:10:13.743Z,47.78
2022-12-02T09:11:15.517Z,47.71
2022-12-02T09:12:17.192Z,47.93
2022-12-02T09:13:18.969Z,47.89
2022-12-02T09:14:20.492Z,47.74
2022-12-02T09:15:22.603Z,47.93
2022-12-02T09:16:24.200Z,47.74
2022-12-02T09:17:25.820Z,47.74
2022-12-02T09:18:27.641Z,47.68
2022-12-02T09:19:29.176Z,47.57
2022-12-02T09:20:30.743Z,47.68
2022-12-02T09:21:32.259Z,47.74
2022-12-02T09:22:33.933Z,47.86
2022-12-02T09:23:35.534Z,47.75
2022-12-02T09:24:37.070Z,47.64
2022-12-02T09:25:38.696Z,47.77
2022-12-02T09:26:40.355Z,47.66
2022-12-02T09:27:42.312Z,47.66
2022-12-02T09:28:43.960Z,47.74
2022-12-02T09:29:45.642Z,47.53
2022-12-02T09:30:47.329Z,47.58
2022-12-02T09:31:48.998Z,47.57
2022-12-02T09:32:50.559Z,47.47
2022-12-02T09:33:52.232Z,47.50
2022-12-02T09:34:54.077Z,47.46
2022-12-02T09:35:55.897Z,47.38
2022-12-02T09:36:57.784Z,47.49
2022-12-02T09:37:59.501Z,47.39
2022-12-02T09:39:01.204Z,47.53
2022-12-02T09:40:02.927Z,47.37
2022-12-02T09:41:04.768Z,47.53
2022-12-02T09:42:11.355Z,47.58
2022-12-02T09:43:13.501Z,47.28
2022-12-02T09:44:15.379Z,47.24
2022-12-02T09:45:17.206Z,47.30
2022-12-02T09:46:24.289Z,47.40
2022-12-02T09:47:28.742Z,47.49
2022-12-02T09:48:30.377Z,47.48
2022-12-02T09:49:31.993Z,47.41
2022-12-02T09:50:34.012Z,47.29
2022-12-02T09:51:35.621Z,47.39
2022-12-02T09:52:37.453Z,47.48
2022-12-02T09:53:41.957Z,47.32
2022-12-02T09:54:43.856Z,47.46
2022-12-02T09:55:45.523Z,47.12
2022-12-02T09:56:47.900Z,47.38
2022-12-02T09:57:49.486Z,47.26
2022-12-02T09:58:53.839Z,47.35
2022-12-02T09:59:55.370Z,47.28
2022-12-02T10:00:56.945Z,47.39
2022-12-02T10:01:59.878Z,47.42
2022-12-02T10:03:01.829Z,47.16
2022-12-02T10:04:04.445Z,47.38
2022-12-02T10:05:22.377Z,47.50
2022-12-02T10:06:26.567Z,47.26
2022-12-02T10:07:28.651Z,47.29
2022-12-02T10:08:32.450Z,47.16
2022-12-02T10:09:35.107Z,47.20
2022-12-02T10:10:42.440Z,47.41
2022-12-02T10:11:44.574Z,47.06
2022-12-02T10:12:46.450Z,47.41
2022-12-02T10:13:49.065Z,47.18
2022-12-02T10:14:52.207Z,47.02
2022-12-02T10:15:54.777Z,47.10
2022-12-02T10:16:56.742Z,47.19
2022-12-02T10:18:02.737Z,47.40
2022-12-02T10:19:05.850Z,47.08
2022-12-02T10:20:08.433Z,47.14
2022-12-02T10:21:10.103Z,47.15
2022-12-02T10:22:20.936Z,47.16
2022-12-02T10:23:27.368Z,47.38
2022-12-02T10:24:37.971Z,47.11
2022-12-02T10:25:43.020Z,47.07
2022-12-02T10:26:53.631Z,47.10
2022-12-02T10:27:55.161Z,47.19
2022-12-02T10:29:08.690Z,47.29
2022-12-02T10:30:27.084Z,47.19
2022-12-02T10:31:28.970Z,47.11
2022-12-02T10:32:30.584Z,47.12
2022-12-02T10:33:35.687Z,47.25
2022-12-02T10:34:37.224Z,47.09
2022-12-02T10:35:50.551Z,47.10
2022-12-02T10:36:52.892Z,47.23
2022-12-02T10:37:54.690Z,47.22
2022-12-02T10:38:56.220Z,47.26
2022-12-02T10:40:06.858Z,47.27
2022-12-02T10:41:26.121Z,47.12
2022-12-02T10:42:27.638Z,47.16
2022-12-02T10:43:29.212Z,47.02
2022-12-02T10:44:32.590Z,47.26
2022-12-02T10:45:34.360Z,47.02
2022-12-02T10:46:36.033Z,47.13
2022-12-02T10:47:37.696Z,47.22
2022-12-02T10:48:39.208Z,47.06
2022-12-02T10:49:48.216Z,47.21
2022-12-02T10:50:49.913Z,47.18
2022-12-02T10:51:51.774Z,47.13
2022-12-02T10:52:59.985Z,47.24
2022-12-02T10:54:01.898Z,46.92
2022-12-02T10:55:04.634Z,47.19
2022-12-02T10:56:06.855Z,47.09
2022-12-02T10:57:13.682Z,47.37
2022-12-02T10:58:23.020Z,47.28
2022-12-02T10:59:25.295Z,47.32
2022-12-02T11:00:27.003Z,47.34
2022-12-02T11:01:28.713Z,47.50
2022-12-02T11:02:36.732Z,47.61
2022-12-02T11:03:39.670Z,47.58
2022-12-02T11:04:41.221Z,47.48
2022-12-02T11:05:42.856Z,47.71
2022-12-02T11:06:45.171Z,47.72
2022-12-02T11:07:55.884Z,47.61
2022-12-02T11:09:17.229Z,47.78
2022-12-02T11:10:22.227Z,47.76
2022-12-02T11:11:23.658Z,47.58
2022-12-02T11:12:35.939Z,47.85
2022-12-02T11:13:52.825Z,47.97
2022-12-02T11:14:56.168Z,47.69
2022-12-02T11:16:29.555Z,47.83
2022-12-02T11:17:52.367Z,47.86
2022-12-02T11:19:08.784Z,47.72
2022-12-02T11:20:30.720Z,47.68
2022-12-02T11:21:36.812Z,47.61
2022-12-02T11:22:49.814Z,47.74
2022-12-02T11:24:23.533Z,47.92
2022-12-02T11:25:43.205Z,47.79
2022-12-02T11:26:59.619Z,47.59
2022-12-02T11:28:29.219Z,47.73
2022-12-02T11:29:33.007Z,47.66
2022-12-02T11:30:39.121Z,47.66
2022-12-02T11:31:40.835Z,47.45
2022-12-02T11:32:48.811Z,47.62
2022-12-02T11:33:57.080Z,47.47
2022-12-02T11:35:18.585Z,47.45
2022-12-02T11:36:23.160Z,47.52
2022-12-02T11:37:30.328Z,47.47
2022-12-02T11:38:47.915Z,47.44
2022-12-02T11:39:53.009Z,47.32
2022-12-02T11:40:54.757Z,47.37
2022-12-02T11:41:59.361Z,47.35
2022-12-02T11:43:49.131Z,47.38
2022-12-02T11:44:51.957Z,47.33
2022-12-02T11:45:57.669Z,47.54
2022-12-02T11:47:01.540Z,47.33
2022-12-02T11:48:03.439Z,47.37
2022-12-02T11:49:21.098Z,47.25
2022-12-02T11:50:37.549Z,47.28
2022-12-02T11:51:41.436Z,47.18
2022-12-02T11:52:49.567Z,47.26
2022-12-02T11:53:52.065Z,47.21
2022-12-02T11:55:04.597Z,47.35
2022-12-02T11:56:11.932Z,47.11
2022-12-02T11:57:21.726Z,47.21
2022-12-02T11:58:29.069Z,47.01
2022-12-02T11:59:30.891Z,47.02
2022-12-02T12:00:38.238Z,46.99
2022-12-02T12:01:40.121Z,47.12
2022-12-02T12:02:41.776Z,47.01
2022-12-02T12:03:46.365Z,46.97
2022-12-02T12:05:03.605Z,47.13
2022-12-02T12:06:15.128Z,46.93
2022-12-02T12:07:16.667Z,46.93
2022-12-02T12:08:27.240Z,47.07
2022-12-02T12:09:29.682Z,47.00
2022-12-02T12:10:39.401Z,47.18
2022-12-02T12:11:42.256Z,46.99
2022-12-02T12:13:23.760Z,47.21
2022-12-02T12:14:25.336Z,46.79
2022-12-02T12:15:47.885Z,47.19
2022-12-02T12:16:50.452Z,46.76
2022-12-02T12:17:52.128Z,47.06
2022-12-02T12:18:54.307Z,46.91
2022-12-02T12:19:55.986Z,46.75
2022-12-02T12:20:57.562Z,47.03
2022-12-02T12:22:00.272Z,46.90
2022-12-02T12:23:27.411Z,47.01
2022-12-02T12:24:30.491Z,46.90
2022-12-02T12:25:42.577Z,47.01
2022-12-02T12:26:48.624Z,46.77
2022-12-02T12:27:50.172Z,46.90
2022-12-02T12:28:51.696Z,46.98
2022-12-02T12:29:53.273Z,46.86
2022-12-02T12:30:55.504Z,46.78
2022-12-02T12:31:57.067Z,46.85
2022-12-02T12:32:58.767Z,46.85
2022-12-02T12:34:00.337Z,46.95
2022-12-02T12:35:01.896Z,46.76
2022-12-02T12:36:03.588Z,47.19
2022-12-02T12:37:05.398Z,46.89
2022-12-02T12:38:06.921Z,46.81
2022-12-02T12:39:09.453Z,46.75
2022-12-02T12:40:13.051Z,46.81
2022-12-02T12:41:19.242Z,46.77
2022-12-02T12:42:27.485Z,46.72
2022-12-02T12:43:29.028Z,46.63
2022-12-02T12:44:32.133Z,46.84
2022-12-02T12:45:34.470Z,46.67
2022-12-02T12:46:36.214Z,46.65
2022-12-02T12:47:37.836Z,46.56
2022-12-02T12:48:39.571Z,46.76
2022-12-02T12:49:41.219Z,46.58
2022-12-02T12:50:42.853Z,46.74
2022-12-02T12:51:44.403Z,46.70
2022-12-02T12:52:45.989Z,46.77
2022-12-02T12:53:47.790Z,46.66
2022-12-02T12:54:51.292Z,46.47
2022-12-02T12:55:57.739Z,46.75
2022-12-02T12:57:02.435Z,46.54
2022-12-02T12:58:04.057Z,46.77
2022-12-02T12:59:05.571Z,46.52
2022-12-02T13:00:07.840Z,46.66
2022-12-02T13:01:09.640Z,46.54
2022-12-02T13:02:11.336Z,46.62
2022-12-02T13:03:13.126Z,46.53
2022-12-02T13:04:14.758Z,46.61
2022-12-02T13:05:16.481Z,46.46
2022-12-02T13:06:18.282Z,46.54
2022-12-02T13:07:19.817Z,46.61
2022-12-02T13:08:21.882Z,46.38
2022-12-02T13:09:23.442Z,46.42
2022-12-02T13:10:25.134Z,46.42
2022-12-02T13:11:26.774Z,46.65
2022-12-02T13:12:28.348Z,46.55
2022-12-02T13:13:30.248Z,46.58
2022-12-02T13:14:31.908Z,46.31
2022-12-02T13:15:33.963Z,46.38
2022-12-02T13:16:36.135Z,46.57
2022-12-02T13:17:37.863Z,46.43
2022-12-02T13:18:39.449Z,46.36
2022-12-02T13:19:40.966Z,46.35
2022-12-02T13:20:42.598Z,46.31
2022-12-02T13:21:44.198Z,46.54
2022-12-02T13:22:46.195Z,46.58
2022-12-02T13:23:47.784Z,46.39
2022-12-02T13:24:49.340Z,46.49
2022-12-02T13:25:50.887Z,46.54
2022-12-02T13:26:52.444Z,46.25
2022-12-02T13:27:54.009Z,46.38
2022-12-02T13:28:57.221Z,46.40
2022-12-02T13:29:58.833Z,46.48
2022-12-02T13:31:00.458Z,46.43
2022-12-02T13:32:02.028Z,46.49
2022-12-02T13:33:03.668Z,46.31
2022-12-02T13:34:05.403Z,46.27
2022-12-02T13:35:07.477Z,46.31
2022-12-02T13:36:09.356Z,46.20
2022-12-02T13:37:10.928Z,46.52
2022-12-02T13:38:12.537Z,46.21
2022-12-02T13:39:14.112Z,46.35
2022-12-02T13:40:19.015Z,46.28
2022-12-02T13:41:20.573Z,46.26
2022-12-02T13:42:22.138Z,46.19
2022-12-02T13:43:23.697Z,46.39